sensor_id;sensor_type;location;lat;lon;timestamp;pressure;altitude;pressure_sealevel;temperature;humidity
69667;BME280;66534;52.370;4.832;2023-04-19T00:00:27;102849.75;;;9.09;100.00
69667;BME280;66534;52.370;4.832;2023-04-19T00:00:57;102856.72;;;9.10;100.00
69667;BME280;66534;52.370;4.832;2023-04-19T00:01:30;102859.28;;;9.24;100.00
69667;BME280;66534;52.370;4.832;2023-04-19T00:02:01;102854.09;;;9.16;100.00
69667;BME280;66534;52.370;4.832;2023-04-19T00:02:32;102854.13;;;9.12;100.00
69667;BME280;66534;52.370;4.832;2023-04-19T00:03:04;102853.19;;;9.20;100.00
69667;BME280;66534;52.370;4.832;2023-04-19T00:03:35;102854.94;;;9.15;100.00
69667;BME280;66534;52.370;4.832;2023-04-19T00:04:05;102855.88;;;9.10;100.00
69667;BME280;66534;52.370;4.832;2023-04-19T00:04:37;102859.38;;;9.09;100.00
69667;BME280;66534;52.370;4.832;2023-04-19T00:05:07;102855.00;;;9.09;100.00
69667;BME280;66534;52.370;4.832;2023-04-19T00:05:39;102851.47;;;9.13;100.00
69667;BME280;66534;52.370;4.832;2023-04-19T00:06:10;102855.84;;;9.13;100.00
69667;BME280;66534;52.370;4.832;2023-04-19T00:06:44;102855.88;;;9.10;100.00
69667;BME280;66534;52.370;4.832;2023-04-19T00:07:15;102855.00;;;9.09;100.00
69667;BME280;66534;52.370;4.832;2023-04-19T00:07:47;102856.72;;;9.13;100.00
69667;BME280;66534;52.370;4.832;2023-04-19T00:08:17;102853.16;;;9.23;100.00
69667;BME280;66534;52.370;4.832;2023-04-19T00:08:48;102853.19;;;9.19;100.00
69667;BME280;66534;52.370;4.832;2023-04-19T00:09:18;102845.38;;;9.16;100.00
69667;BME280;66534;52.370;4.832;2023-04-19T00:09:48;102854.03;;;9.26;100.00
69667;BME280;66534;52.370;4.832;2023-04-19T00:10:19;102853.19;;;9.17;100.00
69667;BME280;66534;52.370;4.832;2023-04-19T00:10:49;102860.16;;;9.25;100.00
69667;BME280;66534;52.370;4.832;2023-04-19T00:11:20;102852.34;;;9.14;100.00
69667;BME280;66534;52.370;4.832;2023-04-19T00:11:51;102859.38;;;9.09;100.00
69667;BME280;66534;52.370;4.832;2023-04-19T00:12:21;102854.09;;;9.13;100.00
69667;BME280;66534;52.370;4.832;2023-04-19T00:12:52;102852.34;;;9.17;100.00
69667;BME280;66534;52.370;4.832;2023-04-19T00:13:22;102856.66;;;9.24;100.00
69667;BME280;66534;52.370;4.832;2023-04-19T00:13:52;102856.72;;;9.16;100.00
69667;BME280;66534;52.370;4.832;2023-04-19T00:14:23;102854.97;;;9.17;100.00
69667;BME280;66534;52.370;4.832;2023-04-19T00:14:53;102856.75;;;9.12;100.00
69667;BME280;66534;52.370;4.832;2023-04-19T00:15:23;102848.91;;;9.06;100.00
69667;BME280;66534;52.370;4.832;2023-04-19T00:15:54;102856.81;;;9.00;100.00
69667;BME280;66534;52.370;4.832;2023-04-19T00:16:24;102854.16;;;9.04;100.00
69667;BME280;66534;52.370;4.832;2023-04-19T00:16:55;102857.63;;;9.06;100.00
69667;BME280;66534;52.370;4.832;2023-04-19T00:17:25;102862.00;;;9.03;100.00
69667;BME280;66534;52.370;4.832;2023-04-19T00:17:56;102854.19;;;9.00;100.00
69667;BME280;66534;52.370;4.832;2023-04-19T00:18:26;102855.91;;;9.05;100.00
69667;BME280;66534;52.370;4.832;2023-04-19T00:18:57;102851.53;;;9.07;100.00
69667;BME280;66534;52.370;4.832;2023-04-19T00:19:27;102854.13;;;9.09;100.00
69667;BME280;66534;52.370;4.832;2023-04-19T00:19:57;102846.28;;;9.09;100.00
69667;BME280;66534;52.370;4.832;2023-04-19T00:20:28;102851.41;;;9.22;100.00
69667;BME280;66534;52.370;4.832;2023-04-19T00:20:58;102847.91;;;9.25;100.00
69667;BME280;66534;52.370;4.832;2023-04-19T00:21:29;102852.25;;;9.29;100.00
69667;BME280;66534;52.370;4.832;2023-04-19T00:22:00;102854.03;;;9.19;100.00
69667;BME280;66534;52.370;4.832;2023-04-19T00:22:30;102849.69;;;9.18;100.00
69667;BME280;66534;52.370;4.832;2023-04-19T00:23:01;102858.47;;;9.10;100.00
69667;BME280;66534;52.370;4.832;2023-04-19T00:23:31;102855.00;;;9.09;100.00
69667;BME280;66534;52.370;4.832;2023-04-19T00:24:02;102850.69;;;9.04;100.00
69667;BME280;66534;52.370;4.832;2023-04-19T00:24:32;102859.38;;;9.03;100.00
69667;BME280;66534;52.370;4.832;2023-04-19T00:25:03;102851.56;;;9.01;100.00
69667;BME280;66534;52.370;4.832;2023-04-19T00:25:33;102854.16;;;9.04;100.00
69667;BME280;66534;52.370;4.832;2023-04-19T00:26:04;102851.53;;;9.03;100.00
69667;BME280;66534;52.370;4.832;2023-04-19T00:26:34;102848.91;;;9.06;100.00
69667;BME280;66534;52.370;4.832;2023-04-19T00:27:05;102850.66;;;9.08;100.00
69667;BME280;66534;52.370;4.832;2023-04-19T00:27:35;102792.47;;;8.62;100.00
69667;BME280;66534;52.370;4.832;2023-04-19T00:28:05;102850.72;;;8.96;100.00
69667;BME280;66534;52.370;4.832;2023-04-19T00:28:36;102851.56;;;9.00;100.00
69667;BME280;66534;52.370;4.832;2023-04-19T00:29:06;102848.94;;;8.98;100.00
69667;BME280;66534;52.370;4.832;2023-04-19T00:29:37;102856.78;;;9.07;100.00
69667;BME280;66534;52.370;4.832;2023-04-19T00:30:07;102850.72;;;8.99;100.00
69667;BME280;66534;52.370;4.832;2023-04-19T00:30:38;102850.72;;;8.99;100.00
69667;BME280;66534;52.370;4.832;2023-04-19T00:31:08;102849.81;;;8.98;100.00
69667;BME280;66534;52.370;4.832;2023-04-19T00:31:39;102855.94;;;8.94;100.00
69667;BME280;66534;52.370;4.832;2023-04-19T00:32:09;102843.78;;;8.90;100.00
69667;BME280;66534;52.370;4.832;2023-04-19T00:32:40;102849.00;;;8.89;100.00
69667;BME280;66534;52.370;4.832;2023-04-19T00:33:10;102842.03;;;8.89;100.00
69667;BME280;66534;52.370;4.832;2023-04-19T00:33:41;102840.25;;;8.93;100.00
69667;BME280;66534;52.370;4.832;2023-04-19T00:34:12;102852.47;;;8.95;100.00
69667;BME280;66534;52.370;4.832;2023-04-19T00:34:42;102844.63;;;8.89;100.00
69667;BME280;66534;52.370;4.832;2023-04-19T00:35:12;102849.00;;;8.89;100.00
69667;BME280;66534;52.370;4.832;2023-04-19T00:35:43;102849.88;;;8.88;100.00
69667;BME280;66534;52.370;4.832;2023-04-19T00:36:14;102848.09;;;8.93;100.00
69667;BME280;66534;52.370;4.832;2023-04-19T00:36:44;102847.28;;;8.88;100.00
69667;BME280;66534;52.370;4.832;2023-04-19T00:37:14;102849.00;;;8.86;100.00
69667;BME280;66534;52.370;4.832;2023-04-19T00:37:45;102848.16;;;8.84;100.00
69667;BME280;66534;52.370;4.832;2023-04-19T00:38:15;102845.53;;;8.85;100.00
69667;BME280;66534;52.370;4.832;2023-04-19T00:38:46;102847.28;;;8.88;100.00
69667;BME280;66534;52.370;4.832;2023-04-19T00:39:16;102841.97;;;8.98;100.00
69667;BME280;66534;52.370;4.832;2023-04-19T00:39:46;102851.53;;;9.03;100.00
69667;BME280;66534;52.370;4.832;2023-04-19T00:40:17;102839.38;;;8.97;100.00
69667;BME280;66534;52.370;4.832;2023-04-19T00:40:47;102844.50;;;9.11;100.00
69667;BME280;66534;52.370;4.832;2023-04-19T00:41:18;102844.53;;;9.06;100.00
69667;BME280;66534;52.370;4.832;2023-04-19T00:41:48;102839.41;;;8.91;100.00
69667;BME280;66534;52.370;4.832;2023-04-19T00:42:18;102842.06;;;8.86;100.00
69667;BME280;66534;52.370;4.832;2023-04-19T00:42:49;102846.38;;;8.89;100.00
69667;BME280;66534;52.370;4.832;2023-04-19T00:43:19;102845.50;;;8.93;100.00
69667;BME280;66534;52.370;4.832;2023-04-19T00:43:50;102840.22;;;9.01;100.00
69667;BME280;66534;52.370;4.832;2023-04-19T00:44:20;102847.22;;;8.94;100.00
69667;BME280;66534;52.370;4.832;2023-04-19T00:44:51;102840.28;;;8.88;100.00
69667;BME280;66534;52.370;4.832;2023-04-19T00:45:21;102845.47;;;8.94;100.00
69667;BME280;66534;52.370;4.832;2023-04-19T00:45:51;102840.19;;;9.05;100.00
69667;BME280;66534;52.370;4.832;2023-04-19T00:46:22;102844.56;;;8.98;100.00
69667;BME280;66534;52.370;4.832;2023-04-19T00:46:54;102845.53;;;8.88;100.00
69667;BME280;66534;52.370;4.832;2023-04-19T00:47:26;102842.03;;;8.89;100.00
69667;BME280;66534;52.370;4.832;2023-04-19T00:47:56;102838.56;;;8.87;100.00
69667;BME280;66534;52.370;4.832;2023-04-19T00:48:26;102840.28;;;8.85;100.00
69667;BME280;66534;52.370;4.832;2023-04-19T00:48:58;102838.56;;;8.84;100.00
69667;BME280;66534;52.370;4.832;2023-04-19T00:49:28;102841.16;;;8.87;100.00
69667;BME280;66534;52.370;4.832;2023-04-19T00:49:59;102840.22;;;9.01;100.00
69667;BME280;66534;52.370;4.832;2023-04-19T00:50:30;102837.59;;;9.01;100.00
69667;BME280;66534;52.370;4.832;2023-04-19T00:51:00;102846.34;;;8.96;100.00
69667;BME280;66534;52.370;4.832;2023-04-19T00:51:31;102842.00;;;8.94;100.00
69667;BME280;66534;52.370;4.832;2023-04-19T00:52:02;102836.81;;;8.85;100.00
69667;BME280;66534;52.370;4.832;2023-04-19T00:52:32;102842.94;;;8.84;100.00
69667;BME280;66534;52.370;4.832;2023-04-19T00:53:03;102838.63;;;8.78;100.00
69667;BME280;66534;52.370;4.832;2023-04-19T00:53:34;102836.88;;;8.76;100.00
69667;BME280;66534;52.370;4.832;2023-04-19T00:54:05;102836.84;;;8.79;100.00
69667;BME280;66534;52.370;4.832;2023-04-19T00:54:36;102837.66;;;8.90;100.00
69667;BME280;66534;52.370;4.832;2023-04-19T00:55:07;102841.16;;;8.89;100.00
69667;BME280;66534;52.370;4.832;2023-04-19T00:55:38;102838.53;;;8.95;100.00
69667;BME280;66534;52.370;4.832;2023-04-19T00:56:08;102838.56;;;8.87;100.00
69667;BME280;66534;52.370;4.832;2023-04-19T00:56:40;102850.81;;;8.79;100.00
69667;BME280;66534;52.370;4.832;2023-04-19T00:57:10;102842.94;;;8.84;100.00
69667;BME280;66534;52.370;4.832;2023-04-19T00:57:41;102845.53;;;8.85;100.00
69667;BME280;66534;52.370;4.832;2023-04-19T00:58:11;102838.53;;;8.86;100.00
69667;BME280;66534;52.370;4.832;2023-04-19T00:58:42;102841.19;;;8.84;100.00
69667;BME280;66534;52.370;4.832;2023-04-19T00:59:13;102841.16;;;8.92;100.00
69667;BME280;66534;52.370;4.832;2023-04-19T00:59:44;102838.56;;;8.87;100.00
69667;BME280;66534;52.370;4.832;2023-04-19T01:00:15;102845.56;;;8.79;100.00
69667;BME280;66534;52.370;4.832;2023-04-19T01:00:45;102840.31;;;8.81;100.00
69667;BME280;66534;52.370;4.832;2023-04-19T01:01:16;102840.34;;;8.79;100.00
69667;BME280;66534;52.370;4.832;2023-04-19T01:01:47;102838.59;;;8.83;100.00
69667;BME280;66534;52.370;4.832;2023-04-19T01:02:17;102843.84;;;8.77;100.00
69667;BME280;66534;52.370;4.832;2023-04-19T01:02:50;102836.84;;;8.77;100.00
69667;BME280;66534;52.370;4.832;2023-04-19T01:03:20;102843.84;;;8.72;100.00
69667;BME280;66534;52.370;4.832;2023-04-19T01:03:51;102831.66;;;8.74;100.00
69667;BME280;66534;52.370;4.832;2023-04-19T01:04:22;102843.81;;;8.80;100.00
69667;BME280;66534;52.370;4.832;2023-04-19T01:04:52;102837.72;;;8.79;100.00
69667;BME280;66534;52.370;4.832;2023-04-19T01:05:23;102838.56;;;8.81;100.00
69667;BME280;66534;52.370;4.832;2023-04-19T01:05:54;102839.50;;;8.74;100.00
69667;BME280;66534;52.370;4.832;2023-04-19T01:06:25;102837.69;;;8.85;100.00
69667;BME280;66534;52.370;4.832;2023-04-19T01:06:57;102839.41;;;8.89;100.00
69667;BME280;66534;52.370;4.832;2023-04-19T01:07:27;102835.94;;;8.90;100.00
69667;BME280;66534;52.370;4.832;2023-04-19T01:07:58;102843.78;;;8.87;100.00
69667;BME280;66534;52.370;4.832;2023-04-19T01:08:28;102831.59;;;8.80;100.00
69667;BME280;66534;52.370;4.832;2023-04-19T01:08:58;102842.94;;;8.82;100.00
69667;BME280;66534;52.370;4.832;2023-04-19T01:09:29;102837.69;;;8.85;100.00
69667;BME280;66534;52.370;4.832;2023-04-19T01:09:59;102841.19;;;8.81;100.00
69667;BME280;66534;52.370;4.832;2023-04-19T01:10:30;102838.56;;;8.81;100.00
69667;BME280;66534;52.370;4.832;2023-04-19T01:11:00;102838.56;;;8.84;100.00
69667;BME280;66534;52.370;4.832;2023-04-19T01:11:31;102838.56;;;8.81;100.00
69667;BME280;66534;52.370;4.832;2023-04-19T01:12:01;102836.84;;;8.83;100.00
69667;BME280;66534;52.370;4.832;2023-04-19T01:12:32;102844.63;;;8.92;100.00
69667;BME280;66534;52.370;4.832;2023-04-19T01:13:03;102841.16;;;8.89;100.00
69667;BME280;66534;52.370;4.832;2023-04-19T01:13:33;102836.84;;;8.83;100.00
69667;BME280;66534;52.370;4.832;2023-04-19T01:14:03;102836.81;;;8.82;100.00
69667;BME280;66534;52.370;4.832;2023-04-19T01:14:34;102828.13;;;8.73;100.00
69667;BME280;66534;52.370;4.832;2023-04-19T01:15:04;102837.72;;;8.78;100.00
69667;BME280;66534;52.370;4.832;2023-04-19T01:15:35;102834.28;;;8.74;100.00
69667;BME280;66534;52.370;4.832;2023-04-19T01:16:05;102829.91;;;8.75;100.00
69667;BME280;66534;52.370;4.832;2023-04-19T01:16:36;102835.09;;;8.79;100.00
69667;BME280;66534;52.370;4.832;2023-04-19T01:17:08;102835.09;;;8.79;100.00
69667;BME280;66534;52.370;4.832;2023-04-19T01:17:38;102833.31;;;8.87;100.00
69667;BME280;66534;52.370;4.832;2023-04-19T01:18:09;102833.25;;;8.96;100.00
69667;BME280;66534;52.370;4.832;2023-04-19T01:18:40;102834.09;;;8.98;100.00
69667;BME280;66534;52.370;4.832;2023-04-19T01:19:10;102837.72;;;8.81;100.00
69667;BME280;66534;52.370;4.832;2023-04-19T01:19:41;102829.91;;;8.68;100.00
69667;BME280;66534;52.370;4.832;2023-04-19T01:20:11;102835.19;;;8.65;100.00
69667;BME280;66534;52.370;4.832;2023-04-19T01:20:42;102841.28;;;8.64;100.00
69667;BME280;66534;52.370;4.832;2023-04-19T01:21:12;102839.53;;;8.69;100.00
69667;BME280;66534;52.370;4.832;2023-04-19T01:21:43;102833.41;;;8.64;100.00
69667;BME280;66534;52.370;4.832;2023-04-19T01:22:18;102833.44;;;8.66;100.00
69667;BME280;66534;52.370;4.832;2023-04-19T01:22:50;102836.91;;;8.69;100.00
69667;BME280;66534;52.370;4.832;2023-04-19T01:23:20;102835.09;;;8.79;100.00
69667;BME280;66534;52.370;4.832;2023-04-19T01:23:51;102831.63;;;8.77;100.00
69667;BME280;66534;52.370;4.832;2023-04-19T01:24:21;102830.75;;;8.80;100.00
69667;BME280;66534;52.370;4.832;2023-04-19T01:24:52;102833.34;;;8.84;100.00
69667;BME280;66534;52.370;4.832;2023-04-19T01:25:22;102823.78;;;8.79;100.00
69667;BME280;66534;52.370;4.832;2023-04-19T01:25:52;102835.09;;;8.82;100.00
69667;BME280;66534;52.370;4.832;2023-04-19T01:26:23;102832.47;;;8.84;100.00
69667;BME280;66534;52.370;4.832;2023-04-19T01:26:54;102834.16;;;8.89;100.00
69667;BME280;66534;52.370;4.832;2023-04-19T01:27:24;102833.34;;;8.81;100.00
69667;BME280;66534;52.370;4.832;2023-04-19T01:27:54;102831.63;;;8.76;100.00
69667;BME280;66534;52.370;4.832;2023-04-19T01:28:25;102833.38;;;8.75;100.00
69667;BME280;66534;52.370;4.832;2023-04-19T01:28:55;102825.50;;;8.77;100.00
69667;BME280;66534;52.370;4.832;2023-04-19T01:29:26;102829.03;;;8.72;100.00
69667;BME280;66534;52.370;4.832;2023-04-19T01:29:56;102830.78;;;8.69;100.00
69667;BME280;66534;52.370;4.832;2023-04-19T01:30:27;102838.59;;;8.73;100.00
69667;BME280;66534;52.370;4.832;2023-04-19T01:30:57;102827.25;;;8.78;100.00
69667;BME280;66534;52.370;4.832;2023-04-19T01:31:28;102828.09;;;8.81;100.00
69667;BME280;66534;52.370;4.832;2023-04-19T01:31:58;102835.09;;;8.79;100.00
69667;BME280;66534;52.370;4.832;2023-04-19T01:32:28;102835.09;;;8.81;100.00
69667;BME280;66534;52.370;4.832;2023-04-19T01:32:59;102832.50;;;8.76;100.00
69667;BME280;66534;52.370;4.832;2023-04-19T01:33:29;102831.66;;;8.74;100.00
69667;BME280;66534;52.370;4.832;2023-04-19T01:33:59;102830.75;;;8.77;100.00
69667;BME280;66534;52.370;4.832;2023-04-19T01:34:30;102836.88;;;8.71;100.00
69667;BME280;66534;52.370;4.832;2023-04-19T01:35:00;102830.78;;;8.72;100.00
69667;BME280;66534;52.370;4.832;2023-04-19T01:35:31;102829.94;;;8.70;100.00
69667;BME280;66534;52.370;4.832;2023-04-19T01:36:01;102831.69;;;8.69;100.00
69667;BME280;66534;52.370;4.832;2023-04-19T01:36:32;102829.94;;;8.67;100.00
69667;BME280;66534;52.370;4.832;2023-04-19T01:37:02;102828.16;;;8.75;100.00
69667;BME280;66534;52.370;4.832;2023-04-19T01:37:35;102826.34;;;8.85;100.00
69667;BME280;66534;52.370;4.832;2023-04-19T01:38:06;102835.09;;;8.79;100.00
69667;BME280;66534;52.370;4.832;2023-04-19T01:38:36;102827.25;;;8.79;100.00
69667;BME280;66534;52.370;4.832;2023-04-19T01:39:06;102824.66;;;8.73;100.00
69667;BME280;66534;52.370;4.832;2023-04-19T01:39:37;102830.78;;;8.72;100.00
69667;BME280;66534;52.370;4.832;2023-04-19T01:40:07;102815.97;;;8.71;100.00
69667;BME280;66534;52.370;4.832;2023-04-19T01:40:38;102830.81;;;8.66;100.00
69667;BME280;66534;52.370;4.832;2023-04-19T01:41:09;102827.34;;;8.65;100.00
69667;BME280;66534;52.370;4.832;2023-04-19T01:41:39;102832.53;;;8.68;100.00
69667;BME280;66534;52.370;4.832;2023-04-19T01:42:10;102826.44;;;8.69;100.00
69667;BME280;66534;52.370;4.832;2023-04-19T01:42:40;102822.09;;;8.67;100.00
69667;BME280;66534;52.370;4.832;2023-04-19T01:43:11;102824.72;;;8.59;100.00
69667;BME280;66534;52.370;4.832;2023-04-19T01:43:43;102826.47;;;8.63;100.00
69667;BME280;66534;52.370;4.832;2023-04-19T01:44:13;102823.81;;;8.65;100.00
69667;BME280;66534;52.370;4.832;2023-04-19T01:44:44;102829.91;;;8.71;100.00
69667;BME280;66534;52.370;4.832;2023-04-19T01:45:14;102827.34;;;8.65;100.00
69667;BME280;66534;52.370;4.832;2023-04-19T01:45:44;102828.19;;;8.66;100.00
69667;BME280;66534;52.370;4.832;2023-04-19T01:46:15;102826.44;;;8.71;100.00
69667;BME280;66534;52.370;4.832;2023-04-19T01:46:45;102827.31;;;8.67;100.00
69667;BME280;66534;52.370;4.832;2023-04-19T01:47:16;102830.78;;;8.72;100.00
69667;BME280;66534;52.370;4.832;2023-04-19T01:47:46;102829.91;;;8.68;100.00
69667;BME280;66534;52.370;4.832;2023-04-19T01:48:16;102830.75;;;8.75;100.00
69667;BME280;66534;52.370;4.832;2023-04-19T01:48:47;102825.50;;;8.77;100.00
69667;BME280;66534;52.370;4.832;2023-04-19T01:49:17;102834.22;;;8.83;100.00
69667;BME280;66534;52.370;4.832;2023-04-19T01:49:47;102828.13;;;8.80;100.00
69667;BME280;66534;52.370;4.832;2023-04-19T01:50:18;102828.97;;;8.82;100.00
69667;BME280;66534;52.370;4.832;2023-04-19T01:50:48;102833.38;;;8.75;100.00
69667;BME280;66534;52.370;4.832;2023-04-19T01:51:18;102827.28;;;8.71;100.00
69667;BME280;66534;52.370;4.832;2023-04-19T01:51:50;102834.22;;;8.77;100.00
69667;BME280;66534;52.370;4.832;2023-04-19T01:52:21;102827.28;;;8.75;100.00
69667;BME280;66534;52.370;4.832;2023-04-19T01:52:51;102830.78;;;8.72;100.00
69667;BME280;66534;52.370;4.832;2023-04-19T01:53:22;102831.63;;;8.76;100.00
69667;BME280;66534;52.370;4.832;2023-04-19T01:53:52;102832.50;;;8.76;100.00
69667;BME280;66534;52.370;4.832;2023-04-19T01:54:23;102829.88;;;8.73;100.00
69667;BME280;66534;52.370;4.832;2023-04-19T01:54:54;102829.00;;;8.80;100.00
69667;BME280;66534;52.370;4.832;2023-04-19T01:55:25;102823.78;;;8.76;100.00
69667;BME280;66534;52.370;4.832;2023-04-19T01:55:55;102832.53;;;8.70;100.00
69667;BME280;66534;52.370;4.832;2023-04-19T01:56:25;102833.38;;;8.73;100.00
69667;BME280;66534;52.370;4.832;2023-04-19T01:56:56;102828.16;;;8.72;100.00
69667;BME280;66534;52.370;4.832;2023-04-19T01:57:27;102835.13;;;8.71;100.00
69667;BME280;66534;52.370;4.832;2023-04-19T01:57:57;102831.66;;;8.74;100.00
69667;BME280;66534;52.370;4.832;2023-04-19T01:58:28;102835.16;;;8.70;100.00
69667;BME280;66534;52.370;4.832;2023-04-19T01:58:58;102834.28;;;8.68;100.00
69667;BME280;66534;52.370;4.832;2023-04-19T01:59:28;102831.66;;;8.71;100.00
69667;BME280;66534;52.370;4.832;2023-04-19T01:59:59;102834.28;;;8.69;100.00
69667;BME280;66534;52.370;4.832;2023-04-19T02:00:30;102830.78;;;8.72;100.00
69667;BME280;66534;52.370;4.832;2023-04-19T02:01:01;102828.97;;;8.82;100.00
69667;BME280;66534;52.370;4.832;2023-04-19T02:01:31;102834.25;;;8.72;100.00
69667;BME280;66534;52.370;4.832;2023-04-19T02:02:01;102829.06;;;8.69;100.00
69667;BME280;66534;52.370;4.832;2023-04-19T02:02:36;102827.28;;;8.75;100.00
69667;BME280;66534;52.370;4.832;2023-04-19T02:03:07;102824.59;;;8.84;100.00
69667;BME280;66534;52.370;4.832;2023-04-19T02:03:38;102827.25;;;8.79;100.00
69667;BME280;66534;52.370;4.832;2023-04-19T02:04:08;102828.19;;;8.67;100.00
69667;BME280;66534;52.370;4.832;2023-04-19T02:04:38;102829.97;;;8.62;100.00
69667;BME280;66534;52.370;4.832;2023-04-19T02:05:09;102825.56;;;8.70;100.00
69667;BME280;66534;52.370;4.832;2023-04-19T02:05:40;102827.34;;;8.65;100.00
69667;BME280;66534;52.370;4.832;2023-04-19T02:06:11;102826.41;;;8.76;100.00
69667;BME280;66534;52.370;4.832;2023-04-19T02:06:42;102831.63;;;8.72;100.00
69667;BME280;66534;52.370;4.832;2023-04-19T02:07:13;102833.38;;;8.72;100.00
69667;BME280;66534;52.370;4.832;2023-04-19T02:07:43;102829.00;;;8.77;100.00
69667;BME280;66534;52.370;4.832;2023-04-19T02:08:13;102827.28;;;8.71;100.00
69667;BME280;66534;52.370;4.832;2023-04-19T02:08:44;102824.69;;;8.71;100.00
69667;BME280;66534;52.370;4.832;2023-04-19T02:09:14;102833.38;;;8.72;100.00
69667;BME280;66534;52.370;4.832;2023-04-19T02:09:45;102833.41;;;8.70;100.00
69667;BME280;66534;52.370;4.832;2023-04-19T02:10:15;102827.28;;;8.71;100.00
69667;BME280;66534;52.370;4.832;2023-04-19T02:10:45;102827.31;;;8.67;100.00
69667;BME280;66534;52.370;4.832;2023-04-19T02:11:16;102827.25;;;8.76;100.00
69667;BME280;66534;52.370;4.832;2023-04-19T02:11:46;102833.38;;;8.73;100.00
69667;BME280;66534;52.370;4.832;2023-04-19T02:12:17;102835.16;;;8.70;100.00
69667;BME280;66534;52.370;4.832;2023-04-19T02:12:47;102827.28;;;8.73;100.00
69667;BME280;66534;52.370;4.832;2023-04-19T02:13:17;102828.19;;;8.70;100.00
69667;BME280;66534;52.370;4.832;2023-04-19T02:13:48;102827.28;;;8.71;100.00
69667;BME280;66534;52.370;4.832;2023-04-19T02:14:18;102829.91;;;8.75;100.00
69667;BME280;66534;52.370;4.832;2023-04-19T02:14:48;102831.66;;;8.71;100.00
69667;BME280;66534;52.370;4.832;2023-04-19T02:15:19;102829.03;;;8.72;100.00
69667;BME280;66534;52.370;4.832;2023-04-19T02:15:49;102830.75;;;8.73;100.00
69667;BME280;66534;52.370;4.832;2023-04-19T02:16:20;102831.66;;;8.74;100.00
69667;BME280;66534;52.370;4.832;2023-04-19T02:16:50;102827.34;;;8.62;100.00
69667;BME280;66534;52.370;4.832;2023-04-19T02:17:20;102833.41;;;8.67;100.00
69667;BME280;66534;52.370;4.832;2023-04-19T02:17:51;102830.81;;;8.67;100.00
69667;BME280;66534;52.370;4.832;2023-04-19T02:18:21;102829.97;;;8.62;100.00
69667;BME280;66534;52.370;4.832;2023-04-19T02:18:53;102825.56;;;8.67;100.00
69667;BME280;66534;52.370;4.832;2023-04-19T02:19:23;102826.44;;;8.68;100.00
69667;BME280;66534;52.370;4.832;2023-04-19T02:19:53;102826.38;;;8.80;100.00
69667;BME280;66534;52.370;4.832;2023-04-19T02:20:24;102826.38;;;8.80;100.00
69667;BME280;66534;52.370;4.832;2023-04-19T02:20:55;102829.88;;;8.76;100.00
69667;BME280;66534;52.370;4.832;2023-04-19T02:21:25;102829.03;;;8.71;100.00
69667;BME280;66534;52.370;4.832;2023-04-19T02:21:56;102830.78;;;8.69;100.00
69667;BME280;66534;52.370;4.832;2023-04-19T02:22:27;102827.28;;;8.71;100.00
69667;BME280;66534;52.370;4.832;2023-04-19T02:22:57;102827.28;;;8.73;100.00
69667;BME280;66534;52.370;4.832;2023-04-19T02:23:27;102831.63;;;8.76;100.00
69667;BME280;66534;52.370;4.832;2023-04-19T02:23:58;102832.53;;;8.70;100.00
69667;BME280;66534;52.370;4.832;2023-04-19T02:24:28;102825.53;;;8.73;100.00
69667;BME280;66534;52.370;4.832;2023-04-19T02:24:59;102823.78;;;8.76;100.00
69667;BME280;66534;52.370;4.832;2023-04-19T02:25:29;102827.25;;;8.79;100.00
69667;BME280;66534;52.370;4.832;2023-04-19T02:26:00;102834.22;;;8.80;100.00
69667;BME280;66534;52.370;4.832;2023-04-19T02:26:34;102832.47;;;8.82;100.00
69667;BME280;66534;52.370;4.832;2023-04-19T02:27:04;102829.00;;;8.80;100.00
69667;BME280;66534;52.370;4.832;2023-04-19T02:27:35;102828.09;;;8.81;100.00
69667;BME280;66534;52.370;4.832;2023-04-19T02:28:05;102827.22;;;8.84;100.00
69667;BME280;66534;52.370;4.832;2023-04-19T02:28:35;102832.47;;;8.84;100.00
69667;BME280;66534;52.370;4.832;2023-04-19T02:29:08;102822.00;;;8.87;100.00
69667;BME280;66534;52.370;4.832;2023-04-19T02:29:38;102821.06;;;8.92;100.00
69667;BME280;66534;52.370;4.832;2023-04-19T02:30:10;102828.94;;;8.92;100.00
69667;BME280;66534;52.370;4.832;2023-04-19T02:30:40;102823.69;;;8.95;100.00
69667;BME280;66534;52.370;4.832;2023-04-19T02:31:11;102826.31;;;8.92;100.00
69667;BME280;66534;52.370;4.832;2023-04-19T02:31:41;102821.91;;;8.94;100.00
69667;BME280;66534;52.370;4.832;2023-04-19T02:32:14;102825.38;;;8.98;100.00
69667;BME280;66534;52.370;4.832;2023-04-19T02:32:46;102833.25;;;8.98;100.00
69667;BME280;66534;52.370;4.832;2023-04-19T02:33:17;102828.94;;;8.91;100.00
69667;BME280;66534;52.370;4.832;2023-04-19T02:33:47;102826.28;;;8.94;100.00
69667;BME280;66534;52.370;4.832;2023-04-19T02:34:18;102824.53;;;8.96;100.00
69667;BME280;66534;52.370;4.832;2023-04-19T02:34:48;102824.53;;;8.94;100.00
69667;BME280;66534;52.370;4.832;2023-04-19T02:35:18;102827.13;;;8.97;100.00
69667;BME280;66534;52.370;4.832;2023-04-19T02:35:50;102830.63;;;9.01;100.00
69667;BME280;66534;52.370;4.832;2023-04-19T02:36:21;102831.50;;;8.97;100.00
69667;BME280;66534;52.370;4.832;2023-04-19T02:36:51;102828.88;;;8.98;100.00
69667;BME280;66534;52.370;4.832;2023-04-19T02:37:21;102825.41;;;8.96;100.00
69667;BME280;66534;52.370;4.832;2023-04-19T02:37:52;102830.63;;;8.98;100.00
69667;BME280;66534;52.370;4.832;2023-04-19T02:38:22;102827.16;;;8.99;100.00
69667;BME280;66534;52.370;4.832;2023-04-19T02:38:52;102830.59;;;9.04;100.00
69667;BME280;66534;52.370;4.832;2023-04-19T02:39:23;102832.38;;;9.01;100.00
69667;BME280;66534;52.370;4.832;2023-04-19T02:39:53;102830.63;;;9.00;100.00
69667;BME280;66534;52.370;4.832;2023-04-19T02:40:24;102832.38;;;8.99;100.00